Time;durP1;ratioP1;P1;durP2;ratioP2;P2;SDS_P1;SDS_P2;PMS_P1;PMS_P2;Temp;Humidity;BMP_temperature;BMP_pressure;BME280_temperature;BME280_humidity;BME280_pressure;Samples;Min_cycle;Max_cycle;Signal;HPM_P1;HPM_P2
2022/06/15 00:00:59;;;;;;;5.60;3.53;;;18.60;99.90;;;;;;5097908;28;20620;-74
2022/06/15 00:03:28;;;;;;;9.63;3.67;;;18.50;99.90;;;;;;5097801;28;21125;-74
2022/06/15 00:06:08;;;;;;;4.00;3.70;;;18.50;99.90;;;;;;5097345;28;20613;-74
2022/06/15 00:08:35;;;;;;;4.47;4.10;;;18.50;99.90;;;;;;5096664;28;20613;-74
2022/06/15 00:11:07;;;;;;;4.20;3.73;;;18.40;99.90;;;;;;5096653;28;20647;-74
2022/06/15 00:13:34;;;;;;;6.80;3.80;;;18.40;99.90;;;;;;5096902;28;20605;-74
2022/06/15 00:16:02;;;;;;;3.67;3.40;;;18.30;99.90;;;;;;5077949;28;20609;-74
2022/06/15 00:18:29;;;;;;;9.63;3.77;;;18.40;99.90;;;;;;5096357;28;20995;-74
2022/06/15 00:20:57;;;;;;;3.70;3.37;;;18.30;99.90;;;;;;5096326;28;20617;-74
2022/06/15 00:23:25;;;;;;;3.50;3.20;;;18.20;99.90;;;;;;5096658;28;20612;-74
2022/06/15 00:25:52;;;;;;;3.70;3.50;;;18.10;99.90;;;;;;5096096;28;20612;-74
2022/06/15 00:28:19;;;;;;;4.83;3.40;;;18.00;99.90;;;;;;5096380;28;20609;-74
2022/06/15 00:30:49;;;;;;;4.07;3.63;;;18.00;99.90;;;;;;5094497;28;20617;-74
2022/06/15 00:33:19;;;;;;;6.57;3.30;;;17.90;99.90;;;;;;5096127;28;20609;-74
2022/06/15 00:36:10;;;;;;;5.10;3.30;;;17.90;99.90;;;;;;5097074;28;20570;-74
2022/06/15 00:38:38;;;;;;;5.57;3.80;;;17.90;99.90;;;;;;5096851;28;20615;-74
2022/06/15 00:41:07;;;;;;;3.40;3.10;;;17.90;99.90;;;;;;5096391;28;20616;-74
2022/06/15 00:43:41;;;;;;;3.90;3.60;;;17.80;99.90;;;;;;5096291;28;20594;-74
2022/06/15 00:46:42;;;;;;;3.40;3.07;;;17.80;99.90;;;;;;5096346;28;20579;-74
2022/06/15 00:49:19;;;;;;;5.50;3.37;;;17.70;99.90;;;;;;5095972;28;20640;-74
2022/06/15 00:51:50;;;;;;;4.57;4.10;;;17.60;99.90;;;;;;5095957;28;20574;-74
2022/06/15 00:54:17;;;;;;;6.70;2.63;;;17.60;99.90;;;;;;5095810;28;20577;-74
2022/06/15 00:56:44;;;;;;;3.70;3.30;;;17.60;99.90;;;;;;5094233;28;20950;-74
2022/06/15 00:59:24;;;;;;;10.10;3.60;;;17.50;99.90;;;;;;5095633;28;20597;-74
2022/06/15 01:01:50;;;;;;;3.37;2.90;;;17.50;99.90;;;;;;5094006;28;21217;-74
2022/06/15 01:04:20;;;;;;;3.47;3.27;;;17.50;99.90;;;;;;5095697;28;20919;-74
2022/06/15 01:07:25;;;;;;;4.60;3.03;;;17.50;99.90;;;;;;5095337;28;21183;-74
2022/06/15 01:10:01;;;;;;;3.10;2.90;;;17.50;99.90;;;;;;5077185;28;20617;-74
2022/06/15 01:12:40;;;;;;;3.40;3.10;;;17.50;99.90;;;;;;5093443;28;20613;-74
2022/06/15 01:15:21;;;;;;;8.33;3.17;;;17.40;99.90;;;;;;5095752;28;20635;-75
2022/06/15 01:18:05;;;;;;;3.97;3.67;;;17.50;99.90;;;;;;5094950;28;20616;-72
2022/06/15 01:21:02;;;;;;;4.53;3.30;;;17.40;99.90;;;;;;5093847;28;20620;-74
2022/06/15 01:23:50;;;;;;;5.60;3.30;;;17.40;99.90;;;;;;5095092;28;20574;-75
2022/06/15 01:26:35;;;;;;;7.80;3.50;;;17.40;99.90;;;;;;5094617;28;20553;-75
2022/06/15 01:29:10;;;;;;;3.47;3.23;;;17.40;99.90;;;;;;5095525;28;20903;-75
2022/06/15 01:31:47;;;;;;;3.90;3.40;;;17.40;99.90;;;;;;5095179;28;20603;-75
2022/06/15 01:34:26;;;;;;;3.37;3.17;;;17.40;99.90;;;;;;5094418;28;20625;-74
2022/06/15 01:37:05;;;;;;;10.10;3.23;;;17.30;99.90;;;;;;5094176;28;20668;-74
2022/06/15 01:39:43;;;;;;;2.93;2.73;;;17.30;99.90;;;;;;5095222;28;20599;-74
2022/06/15 01:42:27;;;;;;;3.90;3.30;;;17.20;99.90;;;;;;5094857;28;20585;-74
2022/06/15 01:45:00;;;;;;;3.43;3.13;;;17.20;99.90;;;;;;5094954;28;20576;-74
2022/06/15 01:47:31;;;;;;;2.83;2.63;;;17.20;99.90;;;;;;5094947;28;20642;-74
2022/06/15 01:50:09;;;;;;;3.00;2.70;;;17.10;99.90;;;;;;5092916;28;21053;-74
2022/06/15 01:52:49;;;;;;;3.73;3.03;;;17.00;99.90;;;;;;5092738;28;20621;-74
2022/06/15 01:55:35;;;;;;;5.97;3.73;;;17.00;99.90;;;;;;5093162;28;20621;-74
2022/06/15 01:58:08;;;;;;;3.90;3.53;;;17.00;99.90;;;;;;5094516;28;20658;-74
2022/06/15 02:00:36;;;;;;;3.07;2.80;;;17.00;99.90;;;;;;5092688;28;20610;-74
2022/06/15 02:03:20;;;;;;;4.20;2.70;;;17.00;99.90;;;;;;5093913;28;20609;-74
2022/06/15 02:06:09;;;;;;;7.50;3.17;;;17.00;99.90;;;;;;5094476;28;20621;-74
2022/06/15 02:08:57;;;;;;;6.10;3.27;;;17.00;99.90;;;;;;5094088;28;20984;-74
2022/06/15 02:11:36;;;;;;;4.03;3.37;;;17.00;99.90;;;;;;5095131;28;20623;-74
2022/06/15 02:14:10;;;;;;;3.27;2.77;;;17.10;99.90;;;;;;5093326;28;20569;-74
2022/06/15 02:16:51;;;;;;;3.90;3.07;;;17.10;99.90;;;;;;5092447;28;20625;-74
2022/06/15 02:19:24;;;;;;;7.57;3.13;;;17.00;99.90;;;;;;5094442;28;20577;-74
2022/06/15 02:21:53;;;;;;;5.43;3.40;;;17.00;99.90;;;;;;5094077;28;20589;-74
2022/06/15 02:24:21;;;;;;;3.83;2.93;;;17.00;99.90;;;;;;5094685;28;20608;-74
2022/06/15 02:26:49;;;;;;;4.43;3.17;;;16.90;99.90;;;;;;5093574;28;20630;-74
2022/06/15 02:29:20;;;;;;;7.60;3.70;;;16.80;99.90;;;;;;5093838;28;20616;-74
2022/06/15 02:31:47;;;;;;;5.33;3.17;;;16.70;99.90;;;;;;5094572;28;20581;-74
2022/06/15 02:34:14;;;;;;;4.00;3.20;;;16.70;99.90;;;;;;5094485;28;20663;-73
2022/06/15 02:36:42;;;;;;;2.97;2.67;;;16.70;99.90;;;;;;5093737;28;20606;-74
2022/06/15 02:39:10;;;;;;;3.27;3.07;;;16.60;99.90;;;;;;5093374;28;21170;-74
2022/06/15 02:41:36;;;;;;;3.97;3.63;;;16.60;99.90;;;;;;5094113;28;20613;-74
2022/06/15 02:44:04;;;;;;;4.03;3.30;;;16.50;99.90;;;;;;5092606;28;20662;-74
2022/06/15 02:46:34;;;;;;;3.30;3.10;;;16.40;99.90;;;;;;5093841;28;20593;-74
2022/06/15 02:49:01;;;;;;;6.30;3.40;;;16.40;99.90;;;;;;5093620;28;20653;-74
2022/06/15 02:51:47;;;;;;;3.33;3.13;;;16.50;99.90;;;;;;5093580;28;20605;-74
2022/06/15 02:54:32;;;;;;;4.10;3.70;;;16.40;99.90;;;;;;5093737;28;20578;-74
2022/06/15 02:56:59;;;;;;;4.27;3.20;;;16.50;99.90;;;;;;5094089;28;20629;-74
2022/06/15 02:59:27;;;;;;;3.70;3.50;;;16.50;99.90;;;;;;5093438;28;20620;-74
2022/06/15 03:01:55;;;;;;;3.67;3.30;;;16.40;99.90;;;;;;5093773;28;20698;-74
2022/06/15 03:04:22;;;;;;;3.63;3.37;;;16.40;99.90;;;;;;5091797;28;20633;-74
2022/06/15 03:06:48;;;;;;;4.37;3.47;;;16.30;99.90;;;;;;5093648;28;21175;-73
2022/06/15 03:09:15;;;;;;;7.57;4.00;;;16.20;99.90;;;;;;5093337;28;20604;-73
2022/06/15 03:11:42;;;;;;;4.07;3.00;;;16.20;99.90;;;;;;5092242;28;20620;-73
2022/06/15 03:14:09;;;;;;;6.53;3.23;;;16.20;99.90;;;;;;5092227;28;20625;-73
2022/06/15 03:16:36;;;;;;;5.53;2.80;;;16.20;99.90;;;;;;5092139;28;21213;-73
2022/06/15 03:19:03;;;;;;;4.47;3.07;;;16.20;99.90;;;;;;5093541;28;21178;-74
2022/06/15 03:21:29;;;;;;;4.57;2.90;;;16.20;99.90;;;;;;5093789;28;20608;-74
2022/06/15 03:23:55;;;;;;;4.47;3.17;;;16.10;99.90;;;;;;5092382;28;21179;-74
2022/06/15 03:26:22;;;;;;;3.40;3.10;;;16.20;99.90;;;;;;5093630;28;20612;-74
2022/06/15 03:28:48;;;;;;;5.43;3.70;;;16.10;99.90;;;;;;5093174;28;20618;-74
2022/06/15 03:31:15;;;;;;;4.90;3.50;;;16.10;99.90;;;;;;5093670;28;20610;-74
2022/06/15 03:33:42;;;;;;;3.63;3.13;;;16.10;99.90;;;;;;5092235;28;20598;-74
2022/06/15 03:36:08;;;;;;;6.07;3.20;;;16.10;99.90;;;;;;5093376;28;20609;-74
2022/06/15 03:38:35;;;;;;;8.70;3.50;;;16.10;99.90;;;;;;5093099;28;20661;-73
2022/06/15 03:41:01;;;;;;;4.00;3.50;;;16.10;99.90;;;;;;5074721;28;21050;-74
2022/06/15 03:43:28;;;;;;;3.20;2.93;;;16.10;99.90;;;;;;5092897;28;20675;-74
2022/06/15 03:45:55;;;;;;;9.00;3.43;;;16.20;99.90;;;;;;5093651;28;20632;-74
2022/06/15 03:48:23;;;;;;;5.70;2.87;;;16.20;99.90;;;;;;5092025;28;20648;-74
2022/06/15 03:50:49;;;;;;;3.37;3.07;;;16.20;99.90;;;;;;5096219;28;20601;-74
2022/06/15 03:53:16;;;;;;;6.03;4.00;;;16.20;99.90;;;;;;5097051;28;20617;-74
2022/06/15 03:55:43;;;;;;;7.93;3.57;;;16.20;99.90;;;;;;5096007;28;21003;-75
2022/06/15 03:58:13;;;;;;;3.13;2.93;;;16.20;99.90;;;;;;5095262;28;21011;-75
2022/06/15 04:00:40;;;;;;;5.70;3.70;;;16.20;99.90;;;;;;5095499;28;20609;-75
2022/06/15 04:03:06;;;;;;;5.90;3.33;;;16.20;99.90;;;;;;5095435;28;20609;-75
2022/06/15 04:05:43;;;;;;;3.90;3.60;;;16.30;99.90;;;;;;5097102;28;20605;-75
2022/06/15 04:08:35;;;;;;;3.60;3.30;;;16.20;99.90;;;;;;5095476;28;21177;-75
2022/06/15 04:11:08;;;;;;;5.17;3.53;;;16.20;99.90;;;;;;5096943;28;20911;-75
2022/06/15 04:13:36;;;;;;;5.30;3.30;;;16.20;99.90;;;;;;5095976;28;20595;-75
2022/06/15 04:16:08;;;;;;;7.50;4.30;;;16.20;99.90;;;;;;5096960;28;20592;-74
2022/06/15 04:18:34;;;;;;;7.63;4.10;;;16.20;99.90;;;;;;5094490;28;20668;-75
2022/06/15 04:21:01;;;;;;;8.23;3.70;;;16.10;99.90;;;;;;5096769;28;20617;-75
2022/06/15 04:23:27;;;;;;;5.17;3.63;;;16.00;99.90;;;;;;5097020;28;20587;-75
2022/06/15 04:25:59;;;;;;;3.63;3.33;;;16.00;99.90;;;;;;5096914;28;21152;-74
2022/06/15 04:28:27;;;;;;;4.47;4.13;;;16.00;99.90;;;;;;5095708;28;20624;-75
2022/06/15 04:30:54;;;;;;;3.77;3.47;;;16.00;99.90;;;;;;5096282;28;20705;-75
2022/06/15 04:33:23;;;;;;;3.77;3.47;;;16.10;99.90;;;;;;5096804;28;20605;-75
2022/06/15 04:35:50;;;;;;;3.97;3.20;;;16.20;99.90;;;;;;5096939;28;20620;-75
2022/06/15 04:38:16;;;;;;;3.50;3.20;;;16.20;99.90;;;;;;5096669;28;21012;-75
2022/06/15 04:40:43;;;;;;;4.27;3.63;;;16.30;99.90;;;;;;5095631;28;20609;-75
2022/06/15 04:43:09;;;;;;;5.50;3.13;;;16.40;99.90;;;;;;5096389;28;20625;-75
2022/06/15 04:45:36;;;;;;;4.77;3.60;;;16.50;99.90;;;;;;5096120;28;20579;-75
2022/06/15 04:48:03;;;;;;;6.33;4.13;;;16.60;99.90;;;;;;5096189;28;20692;-75
2022/06/15 04:50:30;;;;;;;8.20;3.70;;;16.70;99.90;;;;;;5096989;28;21008;-75
2022/06/15 04:52:57;;;;;;;5.90;3.53;;;16.80;99.90;;;;;;5097048;28;20610;-75
2022/06/15 04:55:27;;;;;;;4.27;3.70;;;16.90;99.90;;;;;;5097384;28;21031;-75
2022/06/15 04:57:58;;;;;;;55.30;44.33;;;16.90;99.90;;;;;;5095782;28;21219;-75
2022/06/15 05:00:27;;;;;;;14.23;13.03;;;17.00;99.90;;;;;;5097130;28;20574;-75
2022/06/15 05:02:54;;;;;;;5.67;3.83;;;17.00;99.90;;;;;;5096254;28;20616;-75
2022/06/15 05:05:20;;;;;;;6.00;4.00;;;17.10;99.90;;;;;;5095828;28;20734;-75
2022/06/15 05:07:46;;;;;;;7.07;3.50;;;17.20;99.90;;;;;;5095650;28;20686;-73
2022/06/15 05:10:18;;;;;;;12.30;4.03;;;17.20;99.90;;;;;;5095864;28;21150;-74
2022/06/15 05:12:45;;;;;;;6.93;3.87;;;17.30;99.90;;;;;;5096068;28;20590;-75
2022/06/15 05:15:13;;;;;;;6.67;4.03;;;17.30;99.90;;;;;;5095840;28;20655;-75
2022/06/15 05:17:45;;;;;;;3.60;3.23;;;17.40;99.90;;;;;;5077927;28;20658;-75
2022/06/15 05:20:14;;;;;;;4.70;3.53;;;17.40;99.90;;;;;;5094336;28;20578;-75
2022/06/15 05:22:42;;;;;;;5.47;3.70;;;17.50;99.90;;;;;;5095353;28;20626;-75
2022/06/15 05:25:10;;;;;;;4.53;3.67;;;17.70;99.90;;;;;;5095687;28;20617;-75
2022/06/15 05:27:36;;;;;;;7.83;3.47;;;17.70;99.90;;;;;;5095221;28;20620;-75
2022/06/15 05:30:05;;;;;;;6.80;3.50;;;17.80;99.90;;;;;;5093655;28;21190;-75
2022/06/15 05:32:32;;;;;;;3.63;3.33;;;17.90;99.90;;;;;;5095502;28;20682;-73
2022/06/15 05:35:00;;;;;;;3.97;3.30;;;17.90;99.90;;;;;;5094105;28;20628;-74
2022/06/15 05:37:28;;;;;;;4.67;3.43;;;18.10;99.90;;;;;;5094862;28;20648;-74
2022/06/15 05:39:55;;;;;;;8.13;3.60;;;18.30;99.90;;;;;;5094993;28;20597;-74
2022/06/15 05:42:21;;;;;;;6.22;3.40;;;18.40;99.90;;;;;;5094407;28;21253;-76
2022/06/15 05:44:51;;;;;;;4.70;3.40;;;18.50;99.90;;;;;;5095531;28;20199;-76
2022/06/15 05:47:17;;;;;;;3.90;3.47;;;18.60;99.90;;;;;;5096375;28;20640;-77
2022/06/15 05:49:44;;;;;;;9.17;3.77;;;18.70;99.90;;;;;;5097318;28;20736;-77
2022/06/15 05:52:10;;;;;;;5.77;3.67;;;18.80;99.90;;;;;;5096372;28;20942;-76
2022/06/15 05:54:37;;;;;;;3.30;3.00;;;19.00;99.90;;;;;;5096175;28;20968;-75
2022/06/15 05:57:18;;;;;;;4.17;3.63;;;19.00;99.90;;;;;;5095561;28;20680;-75
2022/06/15 05:59:47;;;;;;;5.50;3.30;;;18.90;99.90;;;;;;5094974;28;20610;-76
2022/06/15 06:02:15;;;;;;;11.87;3.93;;;18.90;99.90;;;;;;5095993;28;20685;-79
2022/06/15 06:04:42;;;;;;;6.63;3.70;;;19.00;99.90;;;;;;5097229;28;20966;-77
2022/06/15 06:07:10;;;;;;;4.43;3.60;;;19.00;99.90;;;;;;5095265;28;20654;-76
2022/06/15 06:09:36;;;;;;;6.30;3.60;;;19.10;99.90;;;;;;5095033;28;20669;-72
2022/06/15 06:12:05;;;;;;;3.50;3.13;;;19.20;99.90;;;;;;5094134;28;20613;-72
2022/06/15 06:14:31;;;;;;;8.23;3.63;;;19.30;99.90;;;;;;5094298;28;20617;-72
2022/06/15 06:16:58;;;;;;;6.97;3.70;;;19.50;99.90;;;;;;5093920;28;20951;-72
2022/06/15 06:19:25;;;;;;;4.30;3.90;;;19.60;99.90;;;;;;5094331;28;20653;-71
2022/06/15 06:21:51;;;;;;;5.40;3.90;;;19.50;99.90;;;;;;5093924;28;20618;-72
2022/06/15 06:24:18;;;;;;;6.73;4.07;;;19.60;99.90;;;;;;5094330;28;20601;-72
2022/06/15 06:26:45;;;;;;;5.47;4.13;;;19.70;99.90;;;;;;5093777;28;20658;-72
2022/06/15 06:29:14;;;;;;;4.07;3.77;;;19.70;99.90;;;;;;5092151;28;20695;-72
2022/06/15 06:31:42;;;;;;;4.07;3.67;;;19.80;99.90;;;;;;5094083;28;20614;-73
2022/06/15 06:34:10;;;;;;;7.80;4.53;;;20.00;99.90;;;;;;5093008;28;20617;-72
2022/06/15 06:36:45;;;;;;;5.17;3.47;;;20.10;99.90;;;;;;5094345;28;20621;-75
2022/06/15 06:39:32;;;;;;;6.77;3.97;;;20.10;99.90;;;;;;5094400;28;20652;-74
2022/06/15 06:42:00;;;;;;;4.07;3.67;;;20.00;99.90;;;;;;5094321;28;20582;-75
2022/06/15 06:44:27;;;;;;;6.73;4.40;;;20.20;99.90;;;;;;5095238;28;20624;-76
2022/06/15 06:46:54;;;;;;;5.37;4.27;;;20.20;99.90;;;;;;5093944;28;20605;-72
2022/06/15 06:49:22;;;;;;;4.27;3.87;;;20.40;99.90;;;;;;5093293;28;20726;-72
2022/06/15 06:51:49;;;;;;;4.50;3.67;;;20.40;99.90;;;;;;5094626;28;20609;-72
2022/06/15 06:54:19;;;;;;;7.73;4.33;;;20.40;99.90;;;;;;5094221;28;20605;-73
2022/06/15 06:56:45;;;;;;;5.50;4.17;;;20.50;99.90;;;;;;5093621;28;21169;-73
2022/06/15 06:59:14;;;;;;;6.60;3.87;;;20.40;99.90;;;;;;5093669;28;21211;-72
2022/06/15 07:01:42;;;;;;;4.70;3.50;;;20.70;99.90;;;;;;5093737;28;20602;-72
2022/06/15 07:04:11;;;;;;;11.43;4.17;;;20.80;99.90;;;;;;5093596;28;20593;-73
2022/06/15 07:06:38;;;;;;;5.90;3.73;;;20.90;99.90;;;;;;5093622;28;20609;-72
2022/06/15 07:09:05;;;;;;;8.73;4.20;;;21.10;99.90;;;;;;5093444;28;21194;-72
2022/06/15 07:11:31;;;;;;;4.00;3.60;;;21.00;99.90;;;;;;5093690;28;20605;-73
2022/06/15 07:13:59;;;;;;;7.03;3.93;;;21.30;99.90;;;;;;5093171;28;20609;-73
2022/06/15 07:16:25;;;;;;;5.10;4.40;;;21.30;99.90;;;;;;5091670;28;20621;-73
2022/06/15 07:18:53;;;;;;;4.77;3.90;;;21.30;99.90;;;;;;5093446;28;21245;-74
2022/06/15 07:21:25;;;;;;;3.60;3.30;;;21.40;99.90;;;;;;5093804;28;20605;-74
2022/06/15 07:23:55;;;;;;;5.93;3.83;;;21.50;99.90;;;;;;5093061;28;20643;-73
2022/06/15 07:26:32;;;;;;;4.07;3.60;;;21.80;99.90;;;;;;5097405;28;20655;-73
2022/06/15 07:28:58;;;;;;;4.43;4.07;;;21.60;99.90;;;;;;5098431;28;20863;-74
2022/06/15 07:31:28;;;;;;;4.20;3.80;;;21.70;99.90;;;;;;5097953;28;20601;-76
2022/06/15 07:33:55;;;;;;;4.40;3.70;;;22.00;99.90;;;;;;5097179;28;20825;-75
2022/06/15 07:36:23;;;;;;;6.50;3.90;;;22.10;99.90;;;;;;5097409;28;20605;-73
2022/06/15 07:38:51;;;;;;;4.10;3.70;;;22.10;99.90;;;;;;5097026;28;21037;-73
2022/06/15 07:41:18;;;;;;;4.30;3.90;;;22.40;99.90;;;;;;5097311;28;20600;-73
2022/06/15 07:43:45;;;;;;;5.60;4.10;;;22.40;99.90;;;;;;5098022;28;20616;-74
2022/06/15 07:46:11;;;;;;;6.33;4.23;;;22.50;99.90;;;;;;5098210;28;20720;-74
2022/06/15 07:51:28;;;;;;;5.27;4.20;;;22.80;99.90;;;;;;5097279;28;21132;-73
2022/06/15 07:53:56;;;;;;;3.77;3.47;;;22.90;99.90;;;;;;5097721;28;20565;-73
2022/06/15 07:56:23;;;;;;;8.37;4.50;;;22.70;99.90;;;;;;5097072;28;20593;-73
2022/06/15 07:58:49;;;;;;;6.83;3.57;;;22.90;99.90;;;;;;5096690;28;20667;-73
2022/06/15 08:01:15;;;;;;;6.83;4.30;;;23.10;99.90;;;;;;5095571;28;20635;-74
2022/06/15 08:03:42;;;;;;;8.83;4.40;;;23.00;99.90;;;;;;5098996;28;20704;-74
2022/06/15 08:06:08;;;;;;;5.17;4.03;;;22.50;99.90;;;;;;5097797;28;20967;-73
2022/06/15 08:08:35;;;;;;;7.37;3.73;;;22.50;99.90;;;;;;5097150;28;20617;-74
2022/06/15 08:11:01;;;;;;;4.33;3.87;;;22.80;99.90;;;;;;5095866;28;21174;-73
2022/06/15 08:13:28;;;;;;;7.10;3.70;;;23.20;99.90;;;;;;5094814;28;20651;-72
2022/06/15 08:15:55;;;;;;;4.20;3.33;;;23.40;99.90;;;;;;5096515;28;20999;-72
2022/06/15 08:18:28;;;;;;;4.53;4.13;;;23.60;99.90;;;;;;5095744;28;20641;-74
2022/06/15 08:20:56;;;;;;;10.30;4.00;;;23.40;99.90;;;;;;5097729;28;20617;-74
2022/06/15 08:23:25;;;;;;;5.20;3.87;;;23.30;99.90;;;;;;5098285;28;20621;-75
2022/06/15 08:25:56;;;;;;;4.43;4.03;;;23.40;99.90;;;;;;5096961;28;20609;-74
2022/06/15 08:28:26;;;;;;;5.47;4.30;;;23.60;99.90;;;;;;5096789;28;20577;-74
2022/06/15 08:30:53;;;;;;;4.63;4.23;;;23.50;99.90;;;;;;5097441;28;20605;-74
2022/06/15 08:33:20;;;;;;;5.13;4.30;;;23.50;99.90;;;;;;5096449;28;20624;-73
2022/06/15 08:35:47;;;;;;;5.00;4.60;;;23.80;99.90;;;;;;5095728;28;20617;-74
2022/06/15 08:38:16;;;;;;;4.57;4.10;;;23.90;99.90;;;;;;5096005;28;20641;-74
2022/06/15 08:40:50;;;;;;;6.97;4.77;;;24.00;99.90;;;;;;5095923;28;20601;-74
2022/06/15 08:43:39;;;;;;;5.27;4.40;;;24.30;99.90;;;;;;5095893;28;20623;-74
2022/06/15 08:46:24;;;;;;;3.93;3.60;;;24.20;99.90;;;;;;5075414;28;20964;-73
2022/06/15 08:49:17;;;;;;;9.67;3.70;;;24.20;99.90;;;;;;5095185;28;20667;-73
2022/06/15 08:51:50;;;;;;;5.10;4.53;;;24.10;99.90;;;;;;5096577;28;20643;-74
2022/06/15 08:54:28;;;;;;;5.63;4.07;;;24.30;99.90;;;;;;5096209;28;20557;-73
2022/06/15 08:57:17;;;;;;;7.23;4.17;;;24.90;99.90;;;;;;5094332;28;20623;-73
2022/06/15 08:59:54;;;;;;;6.90;4.30;;;24.80;99.90;;;;;;5095998;28;20645;-74
2022/06/15 09:02:56;;;;;;;7.43;3.90;;;25.10;99.90;;;;;;5095625;28;20561;-73
2022/06/15 09:05:42;;;;;;;4.13;3.60;;;25.10;99.90;;;;;;5095501;28;20601;-73
2022/06/15 09:08:29;;;;;;;4.27;3.70;;;25.10;99.90;;;;;;5095375;28;20546;-73
2022/06/15 09:11:14;;;;;;;4.33;4.03;;;25.00;99.90;;;;;;5095829;28;20562;-73
2022/06/15 09:13:45;;;;;;;4.73;4.37;;;25.00;99.90;;;;;;5095099;28;20613;-74
2022/06/15 09:16:34;;;;;;;4.83;3.90;;;25.10;99.90;;;;;;5095403;28;20602;-73
2022/06/15 09:19:14;;;;;;;5.43;4.53;;;25.70;99.90;;;;;;5096047;28;20653;-75
2022/06/15 09:21:47;;;;;;;4.73;4.33;;;25.30;99.90;;;;;;5096205;28;20934;-75
2022/06/15 09:24:18;;;;;;;10.00;4.40;;;25.30;99.90;;;;;;5095812;28;20566;-74
2022/06/15 09:26:54;;;;;;;4.43;4.07;;;25.40;99.90;;;;;;5095742;28;20580;-76
2022/06/15 09:29:30;;;;;;;5.00;4.20;;;25.20;99.90;;;;;;5096551;28;20998;-76
2022/06/15 09:32:17;;;;;;;3.93;3.70;;;25.80;99.90;;;;;;5095044;28;21002;-76
2022/06/15 09:34:59;;;;;;;7.77;6.20;;;26.10;99.90;;;;;;5093476;28;20628;-76
2022/06/15 09:37:29;;;;;;;4.00;3.70;;;26.50;99.90;;;;;;5093720;28;20982;-74
2022/06/15 09:39:57;;;;;;;4.37;3.93;;;26.30;99.90;;;;;;5095101;28;20621;-75
2022/06/15 09:42:50;;;;;;;3.87;3.60;;;25.70;99.90;;;;;;5095115;28;20610;-75
2022/06/15 09:45:38;;;;;;;4.90;4.60;;;25.80;99.90;;;;;;5096167;28;20574;-76
2022/06/15 09:48:31;;;;;;;4.00;3.70;;;25.70;99.90;;;;;;5092756;28;20660;-77
2022/06/15 09:51:06;;;;;;;7.93;4.30;;;25.90;99.90;;;;;;5086976;28;21180;-76
2022/06/15 09:54:04;;;;;;;4.77;4.37;;;26.30;99.90;;;;;;5095686;28;20581;-75
2022/06/15 09:56:31;;;;;;;4.40;4.00;;;26.10;99.90;;;;;;5095583;28;20605;-75
2022/06/15 09:59:07;;;;;;;4.67;4.27;;;26.10;99.90;;;;;;5094836;28;21245;-74
2022/06/15 10:01:39;;;;;;;5.30;4.67;;;26.30;99.90;;;;;;5095794;28;21177;-74
2022/06/15 10:04:13;;;;;;;4.90;3.73;;;26.40;99.90;;;;;;5094825;28;20637;-74
2022/06/15 10:06:54;;;;;;;4.83;3.50;;;26.40;99.90;;;;;;5096490;28;20566;-73
2022/06/15 10:09:28;;;;;;;4.43;4.03;;;26.60;99.90;;;;;;5095423;28;21231;-74
2022/06/15 10:12:56;;;;;;;3.80;3.60;;;26.50;99.90;;;;;;5095700;28;20613;-77
2022/06/15 10:15:02;;;;;;;5.20;4.07;;;26.50;99.90;;;;;;5095347;28;20664;-75
2022/06/15 10:17:33;;;;;;;7.60;4.50;;;26.70;99.90;;;;;;5095902;28;20578;-75
2022/06/15 10:20:00;;;;;;;5.00;3.87;;;26.40;99.90;;;;;;5094054;28;20683;-74
2022/06/15 10:22:30;;;;;;;6.53;4.20;;;26.80;99.90;;;;;;5095343;28;20697;-75
2022/06/15 10:24:59;;;;;;;5.20;4.80;;;27.00;99.90;;;;;;5095760;28;21160;-74
2022/06/15 10:27:36;;;;;;;4.77;4.37;;;27.20;99.90;;;;;;5095773;28;20721;-76
2022/06/15 10:30:08;;;;;;;4.93;4.53;;;27.70;99.90;;;;;;5095490;28;21308;-77
2022/06/15 10:32:38;;;;;;;6.10;3.83;;;28.10;99.90;;;;;;5096329;28;20582;-76
2022/06/15 10:35:18;;;;;;;4.20;3.80;;;28.20;99.90;;;;;;5095779;28;21142;-75
2022/06/15 10:37:48;;;;;;;6.20;4.27;;;27.70;99.90;;;;;;5095636;28;20582;-76
2022/06/15 10:40:36;;;;;;;4.77;4.37;;;28.00;99.90;;;;;;5095066;28;21185;-76
2022/06/15 10:43:07;;;;;;;6.73;4.40;;;28.60;99.90;;;;;;5095451;28;21152;-76
2022/06/15 10:45:40;;;;;;;4.80;4.30;;;28.50;99.90;;;;;;5095233;28;20578;-75
2022/06/15 10:48:14;;;;;;;8.20;4.40;;;28.70;99.90;;;;;;5094699;28;20653;-75
2022/06/15 10:51:06;;;;;;;5.60;4.63;;;28.50;99.90;;;;;;5095114;28;20916;-76
2022/06/15 10:53:44;;;;;;;6.30;4.07;;;28.60;99.90;;;;;;5094603;28;20905;-75
2022/06/15 11:03:23;;;;;;;6.43;4.13;;;27.70;99.90;;;;;;5098853;28;20601;-75
2022/06/15 11:05:52;;;;;;;9.23;4.33;;;28.10;99.90;;;;;;5098795;28;21145;-75
2022/06/15 11:08:23;;;;;;;4.70;4.37;;;27.90;99.90;;;;;;5098461;28;20624;-75
2022/06/15 11:11:08;;;;;;;5.13;4.30;;;28.30;99.90;;;;;;5097856;28;20666;-77
2022/06/15 11:13:39;;;;;;;5.17;4.43;;;28.60;99.90;;;;;;5098252;28;20573;-75
2022/06/15 11:19:16;;;;;;;7.73;4.80;;;28.80;99.90;;;;;;5097976;28;20633;-76
2022/06/15 11:22:22;;;;;;;7.47;4.87;;;28.90;99.90;;;;;;5098111;28;20723;-74
2022/06/15 11:25:01;;;;;;;9.03;4.67;;;29.40;99.90;;;;;;5035511;28;20650;-76
2022/06/15 11:28:02;;;;;;;4.37;3.97;;;30.00;99.90;;;;;;5035851;28;20722;-74
2022/06/15 11:30:36;;;;;;;5.23;4.50;;;31.20;99.90;;;;;;5085838;28;20629;-75
2022/06/15 11:33:30;;;;;;;4.13;3.83;;;31.80;99.90;;;;;;5097818;28;20568;-75
2022/06/15 11:36:37;;;;;;;4.60;4.20;;;31.20;99.90;;;;;;5098215;28;20669;-75
2022/06/15 11:39:40;;;;;;;4.30;4.00;;;30.80;99.90;;;;;;5081463;28;20739;-75
2022/06/15 11:42:12;;;;;;;9.37;4.70;;;31.00;99.90;;;;;;5064836;28;20685;-74
2022/06/15 11:44:42;;;;;;;4.80;4.23;;;32.50;99.90;;;;;;5097480;28;20558;-75
2022/06/15 11:47:42;;;;;;;5.03;4.63;;;32.40;99.90;;;;;;5096862;28;20661;-75
2022/06/15 11:50:18;;;;;;;4.30;3.90;;;32.60;99.90;;;;;;5097017;28;20674;-74
2022/06/15 11:53:05;;;;;;;5.80;4.90;;;31.10;99.90;;;;;;5096754;28;20568;-73
2022/06/15 11:55:54;;;;;;;5.63;4.37;;;31.00;99.90;;;;;;5097174;28;20971;-74
2022/06/15 11:58:34;;;;;;;5.80;4.33;;;31.40;99.90;;;;;;5097385;28;20569;-74
2022/06/15 12:01:23;;;;;;;4.27;3.93;;;31.70;99.90;;;;;;5096513;28;20582;-74
2022/06/15 12:03:55;;;;;;;3.97;3.67;;;31.50;99.90;;;;;;5097103;28;20570;-74
2022/06/15 12:06:57;;;;;;;5.60;4.47;;;32.70;99.90;;;;;;5096915;28;20656;-74
2022/06/15 12:09:53;;;;;;;4.83;4.43;;;33.70;99.90;;;;;;5096969;28;20624;-74
2022/06/15 12:12:38;;;;;;;4.60;4.20;;;32.80;99.90;;;;;;5097561;28;20566;-73
2022/06/15 12:15:10;;;;;;;4.80;4.50;;;34.40;99.90;;;;;;5097221;28;21175;-74
2022/06/15 12:17:50;;;;;;;4.47;4.27;;;34.60;99.90;;;;;;5098316;28;20607;-75
2022/06/15 12:20:38;;;;;;;4.17;3.87;;;33.60;99.90;;;;;;5096213;28;21232;-76
2022/06/15 12:23:36;;;;;;;4.40;4.00;;;32.30;99.90;;;;;;5097367;28;20573;-74
2022/06/15 12:26:33;;;;;;;3.97;3.70;;;32.50;99.90;;;;;;5095352;28;20628;-74
2022/06/15 12:29:25;;;;;;;5.90;3.67;;;32.60;99.90;;;;;;5096912;28;20629;-74
2022/06/15 12:31:57;;;;;;;4.53;3.50;;;34.50;99.90;;;;;;5096168;28;20605;-73
2022/06/15 12:34:39;;;;;;;8.23;4.20;;;34.50;99.90;;;;;;5097120;28;20609;-73
2022/06/15 12:37:29;;;;;;;3.60;3.40;;;33.30;99.90;;;;;;5096576;28;20931;-74
2022/06/15 12:40:26;;;;;;;3.47;3.27;;;33.10;99.90;;;;;;5095507;28;20625;-74
2022/06/15 12:43:11;;;;;;;3.73;3.50;;;34.30;99.90;;;;;;5096424;28;20625;-75
2022/06/15 12:45:43;;;;;;;4.03;3.73;;;34.80;99.90;;;;;;5094880;28;20622;-76
2022/06/15 12:48:24;;;;;;;4.03;3.50;;;35.20;99.90;;;;;;5095893;28;20645;-75
2022/06/15 12:50:50;;;;;;;3.90;3.70;;;34.80;99.90;;;;;;5095939;28;20991;-76
2022/06/15 12:53:32;;;;;;;3.60;3.30;;;35.00;99.90;;;;;;5096872;28;20616;-75
2022/06/15 12:56:14;;;;;;;4.00;3.70;;;35.10;99.90;;;;;;5097921;28;20606;-76
2022/06/15 12:59:23;;;;;;;4.27;3.83;;;33.60;99.90;;;;;;5097443;28;20589;-75
2022/06/15 13:02:41;;;;;;;3.90;3.53;;;35.80;99.90;;;;;;5077081;28;20678;-75
2022/06/15 13:05:09;;;;;;;4.13;3.83;;;36.20;99.90;;;;;;5055296;28;20664;-76
2022/06/15 13:07:38;;;;;;;4.30;3.90;;;35.50;99.90;;;;;;5090408;28;20619;-76
2022/06/15 13:10:07;;;;;;;4.57;3.80;;;35.20;99.90;;;;;;5097271;28;20662;-77
2022/06/15 13:12:51;;;;;;;4.30;4.00;;;34.80;99.90;;;;;;5096931;28;20690;-76
2022/06/15 13:15:21;;;;;;;4.20;3.90;;;34.30;99.90;;;;;;5096978;28;20622;-76
2022/06/15 13:18:08;;;;;;;6.30;3.70;;;34.60;99.90;;;;;;5096623;28;21005;-75
2022/06/15 13:20:46;;;;;;;4.23;3.93;;;35.70;99.90;;;;;;5096719;28;20563;-76
2022/06/15 13:23:17;;;;;;;7.33;4.23;;;34.50;99.90;;;;;;5095810;28;20939;-76
2022/06/15 13:26:06;;;;;;;4.60;4.00;;;35.40;99.90;;;;;;5097084;28;21155;-76
2022/06/15 13:28:37;;;;;;;4.27;4.07;;;35.90;99.90;;;;;;5095862;28;20615;-76
2022/06/15 13:31:11;;;;;;;4.53;4.23;;;35.50;99.90;;;;;;5093888;28;20622;-76
2022/06/15 13:33:47;;;;;;;8.27;4.30;;;35.50;99.90;;;;;;5095925;28;20571;-76